sensor_id;sensor_type;location;lat;lon;timestamp;P1;durP1;ratioP1;P2;durP2;ratioP2
13973;SDS011;7060;43.770;4.008;2023-07-13T00:01:17;3.42;;;2.60;;
13973;SDS011;7060;43.770;4.008;2023-07-13T00:03:47;3.47;;;2.63;;
13973;SDS011;7060;43.770;4.008;2023-07-13T00:06:16;4.50;;;2.63;;
13973;SDS011;7060;43.770;4.008;2023-07-13T00:08:47;4.53;;;2.45;;
13973;SDS011;7060;43.770;4.008;2023-07-13T00:11:16;3.53;;;2.30;;
13973;SDS011;7060;43.770;4.008;2023-07-13T00:13:45;2.97;;;2.20;;
13973;SDS011;7060;43.770;4.008;2023-07-13T00:16:16;3.08;;;2.25;;
13973;SDS011;7060;43.770;4.008;2023-07-13T00:18:45;3.95;;;2.30;;
13973;SDS011;7060;43.770;4.008;2023-07-13T00:21:15;2.63;;;2.30;;
13973;SDS011;7060;43.770;4.008;2023-07-13T00:23:43;4.05;;;2.13;;
13973;SDS011;7060;43.770;4.008;2023-07-13T00:26:12;3.90;;;2.60;;
13973;SDS011;7060;43.770;4.008;2023-07-13T00:28:41;5.50;;;2.20;;
13973;SDS011;7060;43.770;4.008;2023-07-13T00:31:11;2.90;;;2.15;;
13973;SDS011;7060;43.770;4.008;2023-07-13T00:33:44;2.95;;;2.28;;
13973;SDS011;7060;43.770;4.008;2023-07-13T00:36:13;4.32;;;2.55;;
13973;SDS011;7060;43.770;4.008;2023-07-13T00:38:42;5.35;;;2.38;;
13973;SDS011;7060;43.770;4.008;2023-07-13T00:41:11;3.30;;;2.40;;
13973;SDS011;7060;43.770;4.008;2023-07-13T00:43:40;2.88;;;1.98;;
13973;SDS011;7060;43.770;4.008;2023-07-13T00:46:17;3.35;;;2.50;;
13973;SDS011;7060;43.770;4.008;2023-07-13T00:48:52;3.00;;;2.17;;
13973;SDS011;7060;43.770;4.008;2023-07-13T00:51:25;2.53;;;2.33;;
13973;SDS011;7060;43.770;4.008;2023-07-13T00:53:59;2.33;;;1.90;;
13973;SDS011;7060;43.770;4.008;2023-07-13T00:56:31;4.72;;;2.25;;
13973;SDS011;7060;43.770;4.008;2023-07-13T00:59:02;4.00;;;2.45;;
13973;SDS011;7060;43.770;4.008;2023-07-13T01:01:33;3.13;;;2.20;;
13973;SDS011;7060;43.770;4.008;2023-07-13T01:04:05;3.85;;;2.28;;
13973;SDS011;7060;43.770;4.008;2023-07-13T01:06:35;3.47;;;2.47;;
13973;SDS011;7060;43.770;4.008;2023-07-13T01:09:05;2.83;;;2.53;;
13973;SDS011;7060;43.770;4.008;2023-07-13T01:11:37;3.42;;;2.33;;
13973;SDS011;7060;43.770;4.008;2023-07-13T01:14:06;4.85;;;2.55;;
13973;SDS011;7060;43.770;4.008;2023-07-13T01:16:36;3.85;;;2.60;;
13973;SDS011;7060;43.770;4.008;2023-07-13T01:19:10;3.03;;;2.25;;
13973;SDS011;7060;43.770;4.008;2023-07-13T01:21:51;3.42;;;2.83;;
13973;SDS011;7060;43.770;4.008;2023-07-13T01:24:21;4.50;;;2.50;;
13973;SDS011;7060;43.770;4.008;2023-07-13T01:26:49;3.85;;;2.20;;
13973;SDS011;7060;43.770;4.008;2023-07-13T01:29:18;5.63;;;2.45;;
13973;SDS011;7060;43.770;4.008;2023-07-13T01:31:47;5.55;;;2.47;;
13973;SDS011;7060;43.770;4.008;2023-07-13T01:34:17;7.15;;;3.20;;
13973;SDS011;7060;43.770;4.008;2023-07-13T01:36:45;3.33;;;2.33;;
13973;SDS011;7060;43.770;4.008;2023-07-13T01:39:16;3.15;;;2.33;;
13973;SDS011;7060;43.770;4.008;2023-07-13T01:41:45;3.42;;;2.42;;
13973;SDS011;7060;43.770;4.008;2023-07-13T01:44:14;2.63;;;2.35;;
13973;SDS011;7060;43.770;4.008;2023-07-13T01:46:43;3.53;;;2.65;;
13973;SDS011;7060;43.770;4.008;2023-07-13T01:49:13;3.25;;;2.53;;
13973;SDS011;7060;43.770;4.008;2023-07-13T01:51:42;3.65;;;2.58;;
13973;SDS011;7060;43.770;4.008;2023-07-13T01:54:11;3.83;;;2.77;;
13973;SDS011;7060;43.770;4.008;2023-07-13T01:56:41;5.63;;;3.00;;
13973;SDS011;7060;43.770;4.008;2023-07-13T01:59:10;3.63;;;2.23;;
13973;SDS011;7060;43.770;4.008;2023-07-13T02:01:39;4.43;;;2.77;;
13973;SDS011;7060;43.770;4.008;2023-07-13T02:04:08;2.43;;;2.20;;
13973;SDS011;7060;43.770;4.008;2023-07-13T02:06:37;3.63;;;2.40;;
13973;SDS011;7060;43.770;4.008;2023-07-13T02:09:06;2.90;;;2.10;;
13973;SDS011;7060;43.770;4.008;2023-07-13T02:11:35;3.33;;;2.40;;
13973;SDS011;7060;43.770;4.008;2023-07-13T02:14:06;3.70;;;2.07;;
13973;SDS011;7060;43.770;4.008;2023-07-13T02:16:36;4.77;;;2.60;;
13973;SDS011;7060;43.770;4.008;2023-07-13T02:19:04;3.60;;;2.43;;
13973;SDS011;7060;43.770;4.008;2023-07-13T02:21:34;4.13;;;2.50;;
13973;SDS011;7060;43.770;4.008;2023-07-13T02:24:03;3.70;;;2.07;;
13973;SDS011;7060;43.770;4.008;2023-07-13T02:26:34;3.67;;;2.30;;
13973;SDS011;7060;43.770;4.008;2023-07-13T02:29:03;3.47;;;2.50;;
13973;SDS011;7060;43.770;4.008;2023-07-13T02:31:33;3.43;;;1.87;;
13973;SDS011;7060;43.770;4.008;2023-07-13T02:34:03;3.87;;;2.20;;
13973;SDS011;7060;43.770;4.008;2023-07-13T02:36:32;4.80;;;2.67;;
13973;SDS011;7060;43.770;4.008;2023-07-13T02:39:02;4.27;;;2.33;;
13973;SDS011;7060;43.770;4.008;2023-07-13T02:41:35;4.83;;;2.50;;
13973;SDS011;7060;43.770;4.008;2023-07-13T02:44:04;3.00;;;2.30;;
13973;SDS011;7060;43.770;4.008;2023-07-13T02:46:36;3.97;;;2.60;;
13973;SDS011;7060;43.770;4.008;2023-07-13T02:49:06;2.73;;;2.40;;
13973;SDS011;7060;43.770;4.008;2023-07-13T02:51:34;2.93;;;2.30;;
13973;SDS011;7060;43.770;4.008;2023-07-13T02:54:04;3.10;;;2.10;;
13973;SDS011;7060;43.770;4.008;2023-07-13T02:56:35;2.73;;;2.13;;
13973;SDS011;7060;43.770;4.008;2023-07-13T02:59:05;3.57;;;2.23;;
13973;SDS011;7060;43.770;4.008;2023-07-13T03:01:36;2.63;;;2.07;;
13973;SDS011;7060;43.770;4.008;2023-07-13T03:04:06;3.27;;;1.77;;
13973;SDS011;7060;43.770;4.008;2023-07-13T03:06:35;3.93;;;2.07;;
13973;SDS011;7060;43.770;4.008;2023-07-13T03:09:04;2.77;;;2.03;;
13973;SDS011;7060;43.770;4.008;2023-07-13T03:11:35;2.27;;;1.87;;
13973;SDS011;7060;43.770;4.008;2023-07-13T03:14:13;2.47;;;1.60;;
13973;SDS011;7060;43.770;4.008;2023-07-13T03:16:44;2.80;;;1.80;;
13973;SDS011;7060;43.770;4.008;2023-07-13T03:19:14;3.80;;;2.00;;
13973;SDS011;7060;43.770;4.008;2023-07-13T03:21:46;2.93;;;1.40;;
13973;SDS011;7060;43.770;4.008;2023-07-13T03:24:16;3.47;;;1.20;;
13973;SDS011;7060;43.770;4.008;2023-07-13T03:26:45;1.47;;;0.90;;
13973;SDS011;7060;43.770;4.008;2023-07-13T03:29:14;2.57;;;1.20;;
13973;SDS011;7060;43.770;4.008;2023-07-13T03:31:45;1.10;;;0.80;;
13973;SDS011;7060;43.770;4.008;2023-07-13T03:34:14;1.47;;;1.00;;
13973;SDS011;7060;43.770;4.008;2023-07-13T03:36:43;2.47;;;0.90;;
13973;SDS011;7060;43.770;4.008;2023-07-13T03:39:12;3.63;;;1.20;;
13973;SDS011;7060;43.770;4.008;2023-07-13T03:41:54;1.00;;;0.73;;
13973;SDS011;7060;43.770;4.008;2023-07-13T03:44:23;2.33;;;0.90;;
13973;SDS011;7060;43.770;4.008;2023-07-13T03:46:56;1.93;;;0.90;;
13973;SDS011;7060;43.770;4.008;2023-07-13T03:49:26;0.93;;;0.70;;
13973;SDS011;7060;43.770;4.008;2023-07-13T03:51:55;2.30;;;1.17;;
13973;SDS011;7060;43.770;4.008;2023-07-13T03:54:24;1.50;;;0.80;;
13973;SDS011;7060;43.770;4.008;2023-07-13T03:56:53;3.33;;;1.10;;
13973;SDS011;7060;43.770;4.008;2023-07-13T03:59:22;3.17;;;1.37;;
13973;SDS011;7060;43.770;4.008;2023-07-13T04:01:51;1.20;;;0.70;;
13973;SDS011;7060;43.770;4.008;2023-07-13T04:04:22;2.77;;;0.97;;
13973;SDS011;7060;43.770;4.008;2023-07-13T04:06:52;1.07;;;0.83;;
13973;SDS011;7060;43.770;4.008;2023-07-13T04:09:22;1.20;;;0.90;;
13973;SDS011;7060;43.770;4.008;2023-07-13T04:11:50;2.83;;;1.00;;
13973;SDS011;7060;43.770;4.008;2023-07-13T04:14:19;1.60;;;1.00;;
13973;SDS011;7060;43.770;4.008;2023-07-13T04:16:48;3.67;;;0.90;;
13973;SDS011;7060;43.770;4.008;2023-07-13T04:19:17;2.80;;;1.03;;
13973;SDS011;7060;43.770;4.008;2023-07-13T04:21:47;2.90;;;1.27;;
13973;SDS011;7060;43.770;4.008;2023-07-13T04:24:16;1.77;;;0.93;;
13973;SDS011;7060;43.770;4.008;2023-07-13T04:26:45;1.17;;;0.70;;
13973;SDS011;7060;43.770;4.008;2023-07-13T04:29:14;0.97;;;0.60;;
13973;SDS011;7060;43.770;4.008;2023-07-13T04:31:43;2.73;;;0.80;;
13973;SDS011;7060;43.770;4.008;2023-07-13T04:34:12;1.13;;;0.67;;
13973;SDS011;7060;43.770;4.008;2023-07-13T04:36:41;1.13;;;0.60;;
13973;SDS011;7060;43.770;4.008;2023-07-13T04:39:11;2.93;;;0.80;;
13973;SDS011;7060;43.770;4.008;2023-07-13T04:41:40;0.80;;;0.67;;
13973;SDS011;7060;43.770;4.008;2023-07-13T04:44:09;0.90;;;0.60;;
13973;SDS011;7060;43.770;4.008;2023-07-13T04:46:38;1.33;;;0.67;;
13973;SDS011;7060;43.770;4.008;2023-07-13T04:49:08;0.67;;;0.40;;
13973;SDS011;7060;43.770;4.008;2023-07-13T04:51:36;1.13;;;0.53;;
13973;SDS011;7060;43.770;4.008;2023-07-13T04:54:05;1.87;;;0.40;;
13973;SDS011;7060;43.770;4.008;2023-07-13T04:56:36;0.60;;;0.47;;
13973;SDS011;7060;43.770;4.008;2023-07-13T04:59:06;1.27;;;0.87;;
13973;SDS011;7060;43.770;4.008;2023-07-13T05:01:35;1.67;;;0.50;;
13973;SDS011;7060;43.770;4.008;2023-07-13T05:04:04;1.27;;;0.50;;
13973;SDS011;7060;43.770;4.008;2023-07-13T05:06:33;1.00;;;0.43;;
13973;SDS011;7060;43.770;4.008;2023-07-13T05:09:02;0.97;;;0.40;;
13973;SDS011;7060;43.770;4.008;2023-07-13T05:11:31;1.43;;;0.47;;
13973;SDS011;7060;43.770;4.008;2023-07-13T05:14:01;0.50;;;0.40;;
13973;SDS011;7060;43.770;4.008;2023-07-13T05:16:31;0.70;;;0.40;;
13973;SDS011;7060;43.770;4.008;2023-07-13T05:19:00;0.73;;;0.40;;
13973;SDS011;7060;43.770;4.008;2023-07-13T05:21:29;0.98;;;0.45;;
13973;SDS011;7060;43.770;4.008;2023-07-13T05:23:58;1.75;;;0.43;;
13973;SDS011;7060;43.770;4.008;2023-07-13T05:26:46;0.82;;;0.45;;
13973;SDS011;7060;43.770;4.008;2023-07-13T05:29:16;0.40;;;0.40;;
13973;SDS011;7060;43.770;4.008;2023-07-13T05:31:45;0.50;;;0.50;;
13973;SDS011;7060;43.770;4.008;2023-07-13T05:34:14;2.30;;;0.50;;
13973;SDS011;7060;43.770;4.008;2023-07-13T05:36:43;1.77;;;0.32;;
13973;SDS011;7060;43.770;4.008;2023-07-13T05:39:12;0.70;;;0.60;;
13973;SDS011;7060;43.770;4.008;2023-07-13T05:41:41;1.27;;;0.43;;
13973;SDS011;7060;43.770;4.008;2023-07-13T05:44:11;0.70;;;0.30;;
13973;SDS011;7060;43.770;4.008;2023-07-13T05:46:41;0.88;;;0.40;;
13973;SDS011;7060;43.770;4.008;2023-07-13T05:49:10;1.02;;;0.70;;
13973;SDS011;7060;43.770;4.008;2023-07-13T05:51:39;0.40;;;0.30;;
13973;SDS011;7060;43.770;4.008;2023-07-13T05:54:08;0.80;;;0.40;;
13973;SDS011;7060;43.770;4.008;2023-07-13T05:56:37;0.90;;;0.50;;
13973;SDS011;7060;43.770;4.008;2023-07-13T05:59:06;0.50;;;0.40;;
13973;SDS011;7060;43.770;4.008;2023-07-13T06:01:35;0.30;;;0.30;;
13973;SDS011;7060;43.770;4.008;2023-07-13T06:04:07;0.47;;;0.30;;
13973;SDS011;7060;43.770;4.008;2023-07-13T06:06:36;0.50;;;0.35;;
13973;SDS011;7060;43.770;4.008;2023-07-13T06:09:04;1.08;;;0.47;;
13973;SDS011;7060;43.770;4.008;2023-07-13T06:11:33;0.45;;;0.40;;
13973;SDS011;7060;43.770;4.008;2023-07-13T06:14:02;0.47;;;0.47;;
13973;SDS011;7060;43.770;4.008;2023-07-13T06:16:31;1.05;;;0.65;;
13973;SDS011;7060;43.770;4.008;2023-07-13T06:19:00;1.55;;;0.57;;
13973;SDS011;7060;43.770;4.008;2023-07-13T06:21:31;0.57;;;0.40;;
13973;SDS011;7060;43.770;4.008;2023-07-13T06:24:00;0.57;;;0.45;;
13973;SDS011;7060;43.770;4.008;2023-07-13T06:26:28;1.10;;;0.50;;
13973;SDS011;7060;43.770;4.008;2023-07-13T06:28:58;0.68;;;0.43;;
13973;SDS011;7060;43.770;4.008;2023-07-13T06:31:27;0.60;;;0.40;;
13973;SDS011;7060;43.770;4.008;2023-07-13T06:33:57;1.77;;;0.50;;
13973;SDS011;7060;43.770;4.008;2023-07-13T06:36:26;0.50;;;0.50;;
13973;SDS011;7060;43.770;4.008;2023-07-13T06:38:56;0.40;;;0.40;;
13973;SDS011;7060;43.770;4.008;2023-07-13T06:41:25;1.85;;;0.55;;
13973;SDS011;7060;43.770;4.008;2023-07-13T06:43:54;1.17;;;0.50;;
13973;SDS011;7060;43.770;4.008;2023-07-13T06:46:23;0.70;;;0.45;;
13973;SDS011;7060;43.770;4.008;2023-07-13T06:48:52;0.60;;;0.50;;
13973;SDS011;7060;43.770;4.008;2023-07-13T06:51:21;1.05;;;0.80;;
13973;SDS011;7060;43.770;4.008;2023-07-13T06:53:50;0.50;;;0.50;;
13973;SDS011;7060;43.770;4.008;2023-07-13T06:56:20;0.68;;;0.52;;
13973;SDS011;7060;43.770;4.008;2023-07-13T06:58:49;0.70;;;0.50;;
13973;SDS011;7060;43.770;4.008;2023-07-13T07:01:18;0.70;;;0.60;;
13973;SDS011;7060;43.770;4.008;2023-07-13T07:03:47;0.70;;;0.60;;
13973;SDS011;7060;43.770;4.008;2023-07-13T07:06:17;0.60;;;0.50;;
13973;SDS011;7060;43.770;4.008;2023-07-13T07:08:47;1.67;;;0.60;;
13973;SDS011;7060;43.770;4.008;2023-07-13T07:11:17;0.65;;;0.65;;
13973;SDS011;7060;43.770;4.008;2023-07-13T07:13:50;1.38;;;0.60;;
13973;SDS011;7060;43.770;4.008;2023-07-13T07:16:20;0.70;;;0.70;;
13973;SDS011;7060;43.770;4.008;2023-07-13T07:18:50;0.68;;;0.68;;
13973;SDS011;7060;43.770;4.008;2023-07-13T07:21:18;0.60;;;0.60;;
13973;SDS011;7060;43.770;4.008;2023-07-13T07:23:49;0.60;;;0.57;;
13973;SDS011;7060;43.770;4.008;2023-07-13T07:26:19;0.80;;;0.60;;
13973;SDS011;7060;43.770;4.008;2023-07-13T07:28:55;1.00;;;0.60;;
13973;SDS011;7060;43.770;4.008;2023-07-13T07:31:27;0.50;;;0.50;;
13973;SDS011;7060;43.770;4.008;2023-07-13T07:33:59;0.77;;;0.60;;
13973;SDS011;7060;43.770;4.008;2023-07-13T07:36:27;0.65;;;0.65;;
13973;SDS011;7060;43.770;4.008;2023-07-13T07:38:59;0.90;;;0.70;;
13973;SDS011;7060;43.770;4.008;2023-07-13T07:41:28;0.65;;;0.52;;
13973;SDS011;7060;43.770;4.008;2023-07-13T07:44:01;1.13;;;0.50;;
13973;SDS011;7060;43.770;4.008;2023-07-13T07:46:30;0.57;;;0.57;;
13973;SDS011;7060;43.770;4.008;2023-07-13T07:48:59;0.70;;;0.50;;
13973;SDS011;7060;43.770;4.008;2023-07-13T07:51:28;0.50;;;0.50;;
13973;SDS011;7060;43.770;4.008;2023-07-13T07:53:57;0.35;;;0.35;;
13973;SDS011;7060;43.770;4.008;2023-07-13T07:56:26;1.98;;;0.32;;
13973;SDS011;7060;43.770;4.008;2023-07-13T07:58:58;1.42;;;0.40;;
13973;SDS011;7060;43.770;4.008;2023-07-13T08:01:31;0.40;;;0.40;;
13973;SDS011;7060;43.770;4.008;2023-07-13T08:04:03;2.83;;;0.30;;
13973;SDS011;7060;43.770;4.008;2023-07-13T08:06:35;0.50;;;0.30;;
13973;SDS011;7060;43.770;4.008;2023-07-13T08:09:07;0.32;;;0.30;;
13973;SDS011;7060;43.770;4.008;2023-07-13T08:11:36;0.30;;;0.30;;
13973;SDS011;7060;43.770;4.008;2023-07-13T08:14:08;0.95;;;0.40;;
13973;SDS011;7060;43.770;4.008;2023-07-13T08:16:38;0.50;;;0.30;;
13973;SDS011;7060;43.770;4.008;2023-07-13T08:19:08;1.20;;;0.40;;
13973;SDS011;7060;43.770;4.008;2023-07-13T08:21:38;0.57;;;0.40;;
13973;SDS011;7060;43.770;4.008;2023-07-13T08:24:07;0.50;;;0.30;;
13973;SDS011;7060;43.770;4.008;2023-07-13T08:26:35;0.40;;;0.40;;
13973;SDS011;7060;43.770;4.008;2023-07-13T08:29:04;0.40;;;0.32;;
13973;SDS011;7060;43.770;4.008;2023-07-13T08:31:33;0.80;;;0.32;;
13973;SDS011;7060;43.770;4.008;2023-07-13T08:34:04;0.57;;;0.30;;
13973;SDS011;7060;43.770;4.008;2023-07-13T08:36:33;1.45;;;0.35;;
13973;SDS011;7060;43.770;4.008;2023-07-13T08:39:02;0.30;;;0.30;;
13973;SDS011;7060;43.770;4.008;2023-07-13T08:41:31;0.45;;;0.45;;
13973;SDS011;7060;43.770;4.008;2023-07-13T08:44:00;0.40;;;0.40;;
13973;SDS011;7060;43.770;4.008;2023-07-13T08:46:36;0.40;;;0.35;;
13973;SDS011;7060;43.770;4.008;2023-07-13T08:49:11;0.30;;;0.30;;
13973;SDS011;7060;43.770;4.008;2023-07-13T08:51:43;0.77;;;0.30;;
13973;SDS011;7060;43.770;4.008;2023-07-13T08:54:20;0.45;;;0.32;;
13973;SDS011;7060;43.770;4.008;2023-07-13T08:56:55;1.00;;;0.35;;
13973;SDS011;7060;43.770;4.008;2023-07-13T08:59:25;1.00;;;0.30;;
13973;SDS011;7060;43.770;4.008;2023-07-13T09:04:56;0.73;;;0.30;;
13973;SDS011;7060;43.770;4.008;2023-07-13T09:07:34;2.45;;;0.32;;
13973;SDS011;7060;43.770;4.008;2023-07-13T09:10:14;0.35;;;0.35;;
13973;SDS011;7060;43.770;4.008;2023-07-13T09:12:49;0.55;;;0.40;;
13973;SDS011;7060;43.770;4.008;2023-07-13T09:15:28;0.45;;;0.40;;
13973;SDS011;7060;43.770;4.008;2023-07-13T09:18:01;1.40;;;0.38;;
13973;SDS011;7060;43.770;4.008;2023-07-13T09:20:39;0.30;;;0.30;;
13973;SDS011;7060;43.770;4.008;2023-07-13T09:23:14;0.40;;;0.40;;
13973;SDS011;7060;43.770;4.008;2023-07-13T09:25:45;0.40;;;0.30;;
13973;SDS011;7060;43.770;4.008;2023-07-13T09:28:22;0.60;;;0.40;;
13973;SDS011;7060;43.770;4.008;2023-07-13T09:30:56;0.90;;;0.40;;
13973;SDS011;7060;43.770;4.008;2023-07-13T09:33:33;2.35;;;1.02;;
13973;SDS011;7060;43.770;4.008;2023-07-13T09:36:05;0.38;;;0.30;;
13973;SDS011;7060;43.770;4.008;2023-07-13T09:38:46;1.00;;;0.40;;
13973;SDS011;7060;43.770;4.008;2023-07-13T09:41:19;0.52;;;0.40;;
13973;SDS011;7060;43.770;4.008;2023-07-13T09:44:01;1.00;;;0.52;;
13973;SDS011;7060;43.770;4.008;2023-07-13T09:46:36;6.20;;;0.75;;
13973;SDS011;7060;43.770;4.008;2023-07-13T09:49:07;1.33;;;0.40;;
13973;SDS011;7060;43.770;4.008;2023-07-13T09:51:41;2.22;;;0.50;;
13973;SDS011;7060;43.770;4.008;2023-07-13T09:54:18;2.05;;;0.73;;
13973;SDS011;7060;43.770;4.008;2023-07-13T09:56:48;0.40;;;0.32;;
13973;SDS011;7060;43.770;4.008;2023-07-13T09:59:24;3.10;;;0.60;;
13973;SDS011;7060;43.770;4.008;2023-07-13T10:01:55;0.75;;;0.40;;
13973;SDS011;7060;43.770;4.008;2023-07-13T10:04:27;0.50;;;0.47;;
13973;SDS011;7060;43.770;4.008;2023-07-13T10:07:06;0.70;;;0.40;;
13973;SDS011;7060;43.770;4.008;2023-07-13T10:09:55;0.75;;;0.57;;
13973;SDS011;7060;43.770;4.008;2023-07-13T10:12:25;3.35;;;0.50;;
13973;SDS011;7060;43.770;4.008;2023-07-13T10:14:55;3.20;;;0.65;;
13973;SDS011;7060;43.770;4.008;2023-07-13T10:17:47;2.25;;;0.60;;
13973;SDS011;7060;43.770;4.008;2023-07-13T10:20:17;1.17;;;0.75;;
13973;SDS011;7060;43.770;4.008;2023-07-13T10:22:51;2.47;;;0.60;;
13973;SDS011;7060;43.770;4.008;2023-07-13T10:25:24;0.85;;;0.60;;
13973;SDS011;7060;43.770;4.008;2023-07-13T10:28:02;5.10;;;0.55;;
13973;SDS011;7060;43.770;4.008;2023-07-13T10:30:35;1.90;;;0.60;;
13973;SDS011;7060;43.770;4.008;2023-07-13T10:33:10;3.45;;;0.60;;
13973;SDS011;7060;43.770;4.008;2023-07-13T10:35:41;1.20;;;0.63;;
13973;SDS011;7060;43.770;4.008;2023-07-13T10:38:15;0.50;;;0.50;;
13973;SDS011;7060;43.770;4.008;2023-07-13T10:40:51;0.50;;;0.50;;
13973;SDS011;7060;43.770;4.008;2023-07-13T10:43:25;0.68;;;0.60;;
13973;SDS011;7060;43.770;4.008;2023-07-13T10:45:57;0.70;;;0.50;;
13973;SDS011;7060;43.770;4.008;2023-07-13T10:48:28;0.93;;;0.60;;
13973;SDS011;7060;43.770;4.008;2023-07-13T10:51:01;0.52;;;0.50;;
13973;SDS011;7060;43.770;4.008;2023-07-13T10:53:34;0.75;;;0.60;;
13973;SDS011;7060;43.770;4.008;2023-07-13T10:56:05;0.60;;;0.60;;
13973;SDS011;7060;43.770;4.008;2023-07-13T10:58:44;0.50;;;0.50;;
13973;SDS011;7060;43.770;4.008;2023-07-13T11:01:15;0.50;;;0.50;;
13973;SDS011;7060;43.770;4.008;2023-07-13T11:03:49;0.80;;;0.60;;
13973;SDS011;7060;43.770;4.008;2023-07-13T11:06:30;0.90;;;0.70;;
13973;SDS011;7060;43.770;4.008;2023-07-13T11:09:18;0.90;;;0.60;;
13973;SDS011;7060;43.770;4.008;2023-07-13T11:12:07;0.88;;;0.55;;
13973;SDS011;7060;43.770;4.008;2023-07-13T11:14:42;0.60;;;0.50;;
13973;SDS011;7060;43.770;4.008;2023-07-13T11:17:33;0.60;;;0.60;;
13973;SDS011;7060;43.770;4.008;2023-07-13T11:20:09;0.77;;;0.60;;
13973;SDS011;7060;43.770;4.008;2023-07-13T11:22:48;0.50;;;0.50;;
13973;SDS011;7060;43.770;4.008;2023-07-13T11:25:28;0.70;;;0.60;;
13973;SDS011;7060;43.770;4.008;2023-07-13T11:28:06;0.75;;;0.70;;
13973;SDS011;7060;43.770;4.008;2023-07-13T11:30:46;1.40;;;0.50;;
13973;SDS011;7060;43.770;4.008;2023-07-13T11:33:17;1.00;;;0.77;;
13973;SDS011;7060;43.770;4.008;2023-07-13T11:35:50;1.42;;;0.90;;
13973;SDS011;7060;43.770;4.008;2023-07-13T11:38:22;1.92;;;0.68;;
13973;SDS011;7060;43.770;4.008;2023-07-13T11:40:58;1.75;;;0.65;;
13973;SDS011;7060;43.770;4.008;2023-07-13T11:43:31;0.70;;;0.68;;
13973;SDS011;7060;43.770;4.008;2023-07-13T11:46:14;0.75;;;0.68;;
13973;SDS011;7060;43.770;4.008;2023-07-13T11:48:44;1.55;;;0.80;;
13973;SDS011;7060;43.770;4.008;2023-07-13T11:51:20;1.05;;;0.70;;
13973;SDS011;7060;43.770;4.008;2023-07-13T11:53:52;0.77;;;0.52;;
13973;SDS011;7060;43.770;4.008;2023-07-13T11:56:25;0.80;;;0.60;;
13973;SDS011;7060;43.770;4.008;2023-07-13T11:58:55;0.90;;;0.68;;
13973;SDS011;7060;43.770;4.008;2023-07-13T12:01:26;1.85;;;0.70;;
13973;SDS011;7060;43.770;4.008;2023-07-13T12:04:00;0.70;;;0.70;;
13973;SDS011;7060;43.770;4.008;2023-07-13T12:06:32;0.60;;;0.60;;
13973;SDS011;7060;43.770;4.008;2023-07-13T12:09:10;1.30;;;0.70;;
13973;SDS011;7060;43.770;4.008;2023-07-13T12:11:42;0.80;;;0.57;;
13973;SDS011;7060;43.770;4.008;2023-07-13T12:14:13;0.70;;;0.70;;
13973;SDS011;7060;43.770;4.008;2023-07-13T12:16:44;1.15;;;0.60;;
13973;SDS011;7060;43.770;4.008;2023-07-13T12:19:17;1.60;;;0.70;;
13973;SDS011;7060;43.770;4.008;2023-07-13T12:21:49;0.95;;;0.73;;
13973;SDS011;7060;43.770;4.008;2023-07-13T12:24:21;0.70;;;0.60;;
13973;SDS011;7060;43.770;4.008;2023-07-13T12:26:52;0.60;;;0.60;;
13973;SDS011;7060;43.770;4.008;2023-07-13T12:29:22;1.27;;;0.65;;
13973;SDS011;7060;43.770;4.008;2023-07-13T12:31:51;0.70;;;0.70;;
13973;SDS011;7060;43.770;4.008;2023-07-13T12:34:23;0.85;;;0.65;;
13973;SDS011;7060;43.770;4.008;2023-07-13T12:36:54;1.42;;;0.60;;
13973;SDS011;7060;43.770;4.008;2023-07-13T12:39:25;0.68;;;0.68;;
13973;SDS011;7060;43.770;4.008;2023-07-13T12:42:13;1.13;;;0.70;;
13973;SDS011;7060;43.770;4.008;2023-07-13T12:44:48;1.25;;;0.77;;
13973;SDS011;7060;43.770;4.008;2023-07-13T12:47:17;4.72;;;0.80;;
13973;SDS011;7060;43.770;4.008;2023-07-13T12:49:50;1.00;;;0.70;;
13973;SDS011;7060;43.770;4.008;2023-07-13T12:52:23;1.27;;;0.65;;
13973;SDS011;7060;43.770;4.008;2023-07-13T12:54:57;0.85;;;0.70;;
13973;SDS011;7060;43.770;4.008;2023-07-13T12:57:39;2.17;;;0.85;;
13973;SDS011;7060;43.770;4.008;2023-07-13T13:02:56;2.55;;;0.80;;
13973;SDS011;7060;43.770;4.008;2023-07-13T13:05:47;1.80;;;0.80;;
13973;SDS011;7060;43.770;4.008;2023-07-13T13:08:17;0.70;;;0.70;;
13973;SDS011;7060;43.770;4.008;2023-07-13T13:10:47;0.82;;;0.70;;
13973;SDS011;7060;43.770;4.008;2023-07-13T13:13:17;2.88;;;0.90;;
13973;SDS011;7060;43.770;4.008;2023-07-13T13:15:46;1.25;;;0.80;;
13973;SDS011;7060;43.770;4.008;2023-07-13T13:18:16;3.85;;;1.00;;
13973;SDS011;7060;43.770;4.008;2023-07-13T13:20:45;0.88;;;0.65;;
13973;SDS011;7060;43.770;4.008;2023-07-13T13:23:15;1.35;;;0.98;;
13973;SDS011;7060;43.770;4.008;2023-07-13T13:25:49;1.42;;;0.70;;
13973;SDS011;7060;43.770;4.008;2023-07-13T13:28:20;1.20;;;0.90;;
13973;SDS011;7060;43.770;4.008;2023-07-13T13:30:50;0.90;;;0.70;;
13973;SDS011;7060;43.770;4.008;2023-07-13T13:33:20;1.05;;;0.80;;
13973;SDS011;7060;43.770;4.008;2023-07-13T13:35:50;1.20;;;0.80;;
13973;SDS011;7060;43.770;4.008;2023-07-13T13:38:20;1.60;;;0.90;;
13973;SDS011;7060;43.770;4.008;2023-07-13T13:40:52;1.15;;;0.90;;
13973;SDS011;7060;43.770;4.008;2023-07-13T13:43:23;1.95;;;0.90;;
13973;SDS011;7060;43.770;4.008;2023-07-13T13:45:55;1.80;;;0.93;;
13973;SDS011;7060;43.770;4.008;2023-07-13T13:48:26;2.05;;;0.93;;
13973;SDS011;7060;43.770;4.008;2023-07-13T13:50:59;1.25;;;0.88;;
13973;SDS011;7060;43.770;4.008;2023-07-13T13:53:31;0.93;;;0.80;;
13973;SDS011;7060;43.770;4.008;2023-07-13T13:56:00;1.88;;;0.77;;
13973;SDS011;7060;43.770;4.008;2023-07-13T13:58:31;1.25;;;0.82;;
13973;SDS011;7060;43.770;4.008;2023-07-13T14:01:00;2.92;;;1.00;;
13973;SDS011;7060;43.770;4.008;2023-07-13T14:03:28;0.80;;;0.70;;
13973;SDS011;7060;43.770;4.008;2023-07-13T14:05:57;1.08;;;0.80;;
13973;SDS011;7060;43.770;4.008;2023-07-13T14:08:27;1.92;;;0.80;;
13973;SDS011;7060;43.770;4.008;2023-07-13T14:10:56;0.90;;;0.90;;
13973;SDS011;7060;43.770;4.008;2023-07-13T14:13:27;5.47;;;0.90;;
13973;SDS011;7060;43.770;4.008;2023-07-13T14:16:00;1.58;;;0.80;;
13973;SDS011;7060;43.770;4.008;2023-07-13T14:18:29;1.67;;;0.98;;
13973;SDS011;7060;43.770;4.008;2023-07-13T14:20:58;1.25;;;0.75;;
13973;SDS011;7060;43.770;4.008;2023-07-13T14:23:27;1.50;;;0.88;;
13973;SDS011;7060;43.770;4.008;2023-07-13T14:25:56;0.93;;;0.80;;
13973;SDS011;7060;43.770;4.008;2023-07-13T14:28:26;0.85;;;0.75;;
13973;SDS011;7060;43.770;4.008;2023-07-13T14:30:55;1.23;;;0.80;;
13973;SDS011;7060;43.770;4.008;2023-07-13T14:33:26;0.90;;;0.65;;
13973;SDS011;7060;43.770;4.008;2023-07-13T14:35:55;1.88;;;0.90;;
13973;SDS011;7060;43.770;4.008;2023-07-13T14:38:25;0.90;;;0.80;;
13973;SDS011;7060;43.770;4.008;2023-07-13T14:40:55;1.08;;;0.98;;
13973;SDS011;7060;43.770;4.008;2023-07-13T14:43:24;1.50;;;0.90;;
13973;SDS011;7060;43.770;4.008;2023-07-13T14:45:55;0.77;;;0.68;;
13973;SDS011;7060;43.770;4.008;2023-07-13T14:48:25;1.40;;;0.88;;
13973;SDS011;7060;43.770;4.008;2023-07-13T14:50:55;1.05;;;0.70;;
13973;SDS011;7060;43.770;4.008;2023-07-13T14:53:25;0.70;;;0.70;;
13973;SDS011;7060;43.770;4.008;2023-07-13T14:55:55;0.90;;;0.77;;
13973;SDS011;7060;43.770;4.008;2023-07-13T14:58:24;0.98;;;0.80;;
13973;SDS011;7060;43.770;4.008;2023-07-13T15:00:55;0.82;;;0.70;;
13973;SDS011;7060;43.770;4.008;2023-07-13T15:03:27;0.60;;;0.60;;
13973;SDS011;7060;43.770;4.008;2023-07-13T15:05:56;1.33;;;0.82;;
13973;SDS011;7060;43.770;4.008;2023-07-13T15:08:25;0.63;;;0.60;;
13973;SDS011;7060;43.770;4.008;2023-07-13T15:10:54;0.88;;;0.70;;
13973;SDS011;7060;43.770;4.008;2023-07-13T15:13:27;0.50;;;0.50;;
13973;SDS011;7060;43.770;4.008;2023-07-13T15:15:56;1.48;;;0.60;;
13973;SDS011;7060;43.770;4.008;2023-07-13T15:18:26;1.10;;;0.70;;
13973;SDS011;7060;43.770;4.008;2023-07-13T15:20:56;1.98;;;0.70;;
13973;SDS011;7060;43.770;4.008;2023-07-13T15:23:29;1.90;;;0.68;;
13973;SDS011;7060;43.770;4.008;2023-07-13T15:25:58;0.90;;;0.60;;
13973;SDS011;7060;43.770;4.008;2023-07-13T15:28:27;2.17;;;0.85;;
13973;SDS011;7060;43.770;4.008;2023-07-13T15:30:56;1.02;;;0.55;;